sensor_id;sensor_type;location;lat;lon;timestamp;P1;durP1;ratioP1;P2;durP2;ratioP2
20653;SDS011;21083;50.898;4.902;2023-10-19T00:02:04;6.80;;;0.80;;
20653;SDS011;21083;50.898;4.902;2023-10-19T00:04:33;4.30;;;0.63;;
20653;SDS011;21083;50.898;4.902;2023-10-19T00:07:01;2.47;;;0.50;;
20653;SDS011;21083;50.898;4.902;2023-10-19T00:09:30;3.75;;;0.65;;
20653;SDS011;21083;50.898;4.902;2023-10-19T00:12:02;5.57;;;0.80;;
20653;SDS011;21083;50.898;4.902;2023-10-19T00:14:30;4.88;;;0.82;;
20653;SDS011;21083;50.898;4.902;2023-10-19T00:16:57;2.78;;;0.52;;
20653;SDS011;21083;50.898;4.902;2023-10-19T00:19:33;2.17;;;0.55;;
20653;SDS011;21083;50.898;4.902;2023-10-19T00:22:04;3.95;;;0.40;;
20653;SDS011;21083;50.898;4.902;2023-10-19T00:24:40;3.90;;;0.60;;
20653;SDS011;21083;50.898;4.902;2023-10-19T00:27:07;3.65;;;0.60;;
20653;SDS011;21083;50.898;4.902;2023-10-19T00:29:41;5.18;;;0.55;;
20653;SDS011;21083;50.898;4.902;2023-10-19T00:32:14;4.85;;;0.68;;
20653;SDS011;21083;50.898;4.902;2023-10-19T00:34:44;3.28;;;0.68;;
20653;SDS011;21083;50.898;4.902;2023-10-19T00:37:17;10.77;;;1.13;;
20653;SDS011;21083;50.898;4.902;2023-10-19T00:39:51;7.03;;;1.02;;
20653;SDS011;21083;50.898;4.902;2023-10-19T00:42:20;6.40;;;0.95;;
20653;SDS011;21083;50.898;4.902;2023-10-19T00:44:55;4.30;;;0.60;;
20653;SDS011;21083;50.898;4.902;2023-10-19T00:47:29;5.05;;;0.93;;
20653;SDS011;21083;50.898;4.902;2023-10-19T00:50:07;9.10;;;0.95;;
20653;SDS011;21083;50.898;4.902;2023-10-19T00:52:40;7.95;;;1.48;;
20653;SDS011;21083;50.898;4.902;2023-10-19T00:55:14;2.25;;;0.50;;
20653;SDS011;21083;50.898;4.902;2023-10-19T00:57:44;5.40;;;1.02;;
20653;SDS011;21083;50.898;4.902;2023-10-19T01:00:14;5.78;;;0.70;;
20653;SDS011;21083;50.898;4.902;2023-10-19T01:02:55;3.55;;;0.73;;
20653;SDS011;21083;50.898;4.902;2023-10-19T01:05:26;4.45;;;0.85;;
20653;SDS011;21083;50.898;4.902;2023-10-19T01:08:01;3.90;;;0.80;;
20653;SDS011;21083;50.898;4.902;2023-10-19T01:10:39;2.83;;;0.60;;
20653;SDS011;21083;50.898;4.902;2023-10-19T01:13:08;8.35;;;1.17;;
20653;SDS011;21083;50.898;4.902;2023-10-19T01:15:37;5.97;;;1.23;;
20653;SDS011;21083;50.898;4.902;2023-10-19T01:18:04;2.35;;;0.60;;
20653;SDS011;21083;50.898;4.902;2023-10-19T01:20:37;5.60;;;0.70;;
20653;SDS011;21083;50.898;4.902;2023-10-19T01:23:17;2.83;;;0.43;;
20653;SDS011;21083;50.898;4.902;2023-10-19T01:25:51;4.93;;;0.70;;
20653;SDS011;21083;50.898;4.902;2023-10-19T01:28:26;7.07;;;0.95;;
20653;SDS011;21083;50.898;4.902;2023-10-19T01:31:07;6.40;;;0.70;;
20653;SDS011;21083;50.898;4.902;2023-10-19T01:33:39;6.22;;;0.70;;
20653;SDS011;21083;50.898;4.902;2023-10-19T01:36:09;4.53;;;0.60;;
20653;SDS011;21083;50.898;4.902;2023-10-19T01:38:38;6.68;;;0.77;;
20653;SDS011;21083;50.898;4.902;2023-10-19T01:41:05;6.35;;;0.75;;
20653;SDS011;21083;50.898;4.902;2023-10-19T01:43:38;6.90;;;0.75;;
20653;SDS011;21083;50.898;4.902;2023-10-19T01:46:05;3.88;;;0.75;;
20653;SDS011;21083;50.898;4.902;2023-10-19T01:48:37;5.97;;;0.70;;
20653;SDS011;21083;50.898;4.902;2023-10-19T01:51:06;6.95;;;0.73;;
20653;SDS011;21083;50.898;4.902;2023-10-19T01:53:36;7.78;;;0.88;;
20653;SDS011;21083;50.898;4.902;2023-10-19T01:56:05;3.95;;;0.40;;
20653;SDS011;21083;50.898;4.902;2023-10-19T01:58:34;4.05;;;1.00;;
20653;SDS011;21083;50.898;4.902;2023-10-19T02:01:01;8.13;;;0.93;;
20653;SDS011;21083;50.898;4.902;2023-10-19T02:03:33;3.75;;;0.80;;
20653;SDS011;21083;50.898;4.902;2023-10-19T02:06:01;9.18;;;0.90;;
20653;SDS011;21083;50.898;4.902;2023-10-19T02:08:37;5.80;;;1.02;;
20653;SDS011;21083;50.898;4.902;2023-10-19T02:11:04;8.23;;;1.10;;
20653;SDS011;21083;50.898;4.902;2023-10-19T02:13:38;6.57;;;1.00;;
20653;SDS011;21083;50.898;4.902;2023-10-19T02:16:05;3.92;;;0.70;;
20653;SDS011;21083;50.898;4.902;2023-10-19T02:18:33;6.15;;;0.98;;
20653;SDS011;21083;50.898;4.902;2023-10-19T02:21:00;7.32;;;1.48;;
20653;SDS011;21083;50.898;4.902;2023-10-19T02:23:31;8.02;;;1.05;;
20653;SDS011;21083;50.898;4.902;2023-10-19T02:26:01;8.05;;;1.30;;
20653;SDS011;21083;50.898;4.902;2023-10-19T02:28:30;9.63;;;1.53;;
20653;SDS011;21083;50.898;4.902;2023-10-19T02:30:57;8.23;;;1.13;;
20653;SDS011;21083;50.898;4.902;2023-10-19T02:33:36;9.50;;;1.17;;
20653;SDS011;21083;50.898;4.902;2023-10-19T02:36:03;8.02;;;1.20;;
20653;SDS011;21083;50.898;4.902;2023-10-19T02:38:38;4.70;;;1.15;;
20653;SDS011;21083;50.898;4.902;2023-10-19T02:41:06;8.32;;;1.20;;
20653;SDS011;21083;50.898;4.902;2023-10-19T02:43:34;9.57;;;1.13;;
20653;SDS011;21083;50.898;4.902;2023-10-19T02:46:01;4.45;;;1.05;;
20653;SDS011;21083;50.898;4.902;2023-10-19T02:48:29;8.93;;;1.38;;
20653;SDS011;21083;50.898;4.902;2023-10-19T02:50:56;6.10;;;1.00;;
20653;SDS011;21083;50.898;4.902;2023-10-19T02:53:31;6.55;;;1.00;;
20653;SDS011;21083;50.898;4.902;2023-10-19T02:55:59;8.68;;;1.10;;
20653;SDS011;21083;50.898;4.902;2023-10-19T02:58:37;6.43;;;1.40;;
20653;SDS011;21083;50.898;4.902;2023-10-19T03:01:11;7.25;;;1.42;;
20653;SDS011;21083;50.898;4.902;2023-10-19T03:03:42;8.45;;;1.52;;
20653;SDS011;21083;50.898;4.902;2023-10-19T03:06:09;14.93;;;1.75;;
20653;SDS011;21083;50.898;4.902;2023-10-19T03:08:36;8.55;;;1.13;;
20653;SDS011;21083;50.898;4.902;2023-10-19T03:11:02;7.63;;;1.10;;
20653;SDS011;21083;50.898;4.902;2023-10-19T03:13:34;7.35;;;1.42;;
20653;SDS011;21083;50.898;4.902;2023-10-19T03:16:03;12.55;;;2.55;;
20653;SDS011;21083;50.898;4.902;2023-10-19T03:18:32;11.30;;;1.40;;
20653;SDS011;21083;50.898;4.902;2023-10-19T03:21:00;8.10;;;1.40;;
20653;SDS011;21083;50.898;4.902;2023-10-19T03:23:26;10.07;;;1.42;;
20653;SDS011;21083;50.898;4.902;2023-10-19T03:25:55;10.85;;;1.60;;
20653;SDS011;21083;50.898;4.902;2023-10-19T03:28:39;9.60;;;1.52;;
20653;SDS011;21083;50.898;4.902;2023-10-19T03:31:09;9.90;;;1.50;;
20653;SDS011;21083;50.898;4.902;2023-10-19T03:33:42;9.93;;;1.40;;
20653;SDS011;21083;50.898;4.902;2023-10-19T03:36:13;7.40;;;1.40;;
20653;SDS011;21083;50.898;4.902;2023-10-19T03:38:39;11.85;;;1.63;;
20653;SDS011;21083;50.898;4.902;2023-10-19T03:41:06;13.43;;;1.92;;
20653;SDS011;21083;50.898;4.902;2023-10-19T03:43:34;7.88;;;1.42;;
20653;SDS011;21083;50.898;4.902;2023-10-19T03:46:05;9.90;;;1.67;;
20653;SDS011;21083;50.898;4.902;2023-10-19T03:48:45;14.07;;;2.40;;
20653;SDS011;21083;50.898;4.902;2023-10-19T03:51:12;11.88;;;1.42;;
20653;SDS011;21083;50.898;4.902;2023-10-19T03:53:40;12.32;;;1.70;;
20653;SDS011;21083;50.898;4.902;2023-10-19T03:56:11;12.10;;;1.88;;
20653;SDS011;21083;50.898;4.902;2023-10-19T03:58:38;8.68;;;1.70;;
20653;SDS011;21083;50.898;4.902;2023-10-19T04:01:08;10.55;;;1.52;;
20653;SDS011;21083;50.898;4.902;2023-10-19T04:03:36;12.00;;;1.80;;
20653;SDS011;21083;50.898;4.902;2023-10-19T04:06:04;9.95;;;1.77;;
20653;SDS011;21083;50.898;4.902;2023-10-19T04:08:32;12.50;;;1.70;;
20653;SDS011;21083;50.898;4.902;2023-10-19T04:11:02;17.48;;;2.20;;
20653;SDS011;21083;50.898;4.902;2023-10-19T04:13:37;12.35;;;1.73;;
20653;SDS011;21083;50.898;4.902;2023-10-19T04:16:04;12.00;;;2.00;;
20653;SDS011;21083;50.898;4.902;2023-10-19T04:18:34;9.75;;;1.95;;
20653;SDS011;21083;50.898;4.902;2023-10-19T04:21:06;14.15;;;2.13;;
20653;SDS011;21083;50.898;4.902;2023-10-19T04:23:33;11.60;;;2.28;;
20653;SDS011;21083;50.898;4.902;2023-10-19T04:26:01;13.23;;;1.73;;
20653;SDS011;21083;50.898;4.902;2023-10-19T04:28:36;14.93;;;2.35;;
20653;SDS011;21083;50.898;4.902;2023-10-19T04:31:14;14.50;;;2.08;;
20653;SDS011;21083;50.898;4.902;2023-10-19T04:33:41;10.55;;;2.63;;
20653;SDS011;21083;50.898;4.902;2023-10-19T04:36:12;13.65;;;1.98;;
20653;SDS011;21083;50.898;4.902;2023-10-19T04:38:40;12.68;;;1.95;;
20653;SDS011;21083;50.898;4.902;2023-10-19T04:41:09;9.07;;;1.60;;
20653;SDS011;21083;50.898;4.902;2023-10-19T04:43:37;16.25;;;2.33;;
20653;SDS011;21083;50.898;4.902;2023-10-19T04:46:06;10.95;;;1.60;;
20653;SDS011;21083;50.898;4.902;2023-10-19T04:48:36;11.32;;;1.95;;
20653;SDS011;21083;50.898;4.902;2023-10-19T04:51:05;13.25;;;1.90;;
20653;SDS011;21083;50.898;4.902;2023-10-19T04:53:35;18.83;;;2.65;;
20653;SDS011;21083;50.898;4.902;2023-10-19T04:56:05;10.60;;;1.75;;
20653;SDS011;21083;50.898;4.902;2023-10-19T04:58:34;6.82;;;2.17;;
20653;SDS011;21083;50.898;4.902;2023-10-19T05:01:01;13.15;;;1.67;;
20653;SDS011;21083;50.898;4.902;2023-10-19T05:03:29;13.43;;;1.80;;
20653;SDS011;21083;50.898;4.902;2023-10-19T05:05:56;14.02;;;1.90;;
20653;SDS011;21083;50.898;4.902;2023-10-19T05:08:23;12.45;;;1.75;;
20653;SDS011;21083;50.898;4.902;2023-10-19T05:10:54;11.73;;;1.70;;
20653;SDS011;21083;50.898;4.902;2023-10-19T05:13:24;6.85;;;1.50;;
20653;SDS011;21083;50.898;4.902;2023-10-19T05:15:52;10.55;;;1.80;;
20653;SDS011;21083;50.898;4.902;2023-10-19T05:18:19;11.73;;;1.70;;
20653;SDS011;21083;50.898;4.902;2023-10-19T05:20:47;14.55;;;2.55;;
20653;SDS011;21083;50.898;4.902;2023-10-19T05:23:15;14.43;;;1.58;;
20653;SDS011;21083;50.898;4.902;2023-10-19T05:25:42;11.63;;;1.63;;
20653;SDS011;21083;50.898;4.902;2023-10-19T05:28:11;9.90;;;1.58;;
20653;SDS011;21083;50.898;4.902;2023-10-19T05:30:38;11.52;;;1.55;;
20653;SDS011;21083;50.898;4.902;2023-10-19T05:33:05;13.50;;;1.83;;
20653;SDS011;21083;50.898;4.902;2023-10-19T05:35:32;10.77;;;1.75;;
20653;SDS011;21083;50.898;4.902;2023-10-19T05:38:05;9.20;;;1.60;;
20653;SDS011;21083;50.898;4.902;2023-10-19T05:40:32;8.88;;;1.50;;
20653;SDS011;21083;50.898;4.902;2023-10-19T05:43:01;12.18;;;2.45;;
20653;SDS011;21083;50.898;4.902;2023-10-19T05:45:29;10.68;;;1.55;;
20653;SDS011;21083;50.898;4.902;2023-10-19T05:47:57;13.63;;;1.63;;
20653;SDS011;21083;50.898;4.902;2023-10-19T05:50:25;15.15;;;2.05;;
20653;SDS011;21083;50.898;4.902;2023-10-19T05:52:53;10.98;;;1.77;;
20653;SDS011;21083;50.898;4.902;2023-10-19T05:55:20;8.20;;;1.38;;
20653;SDS011;21083;50.898;4.902;2023-10-19T05:57:47;14.43;;;2.30;;
20653;SDS011;21083;50.898;4.902;2023-10-19T06:00:14;11.50;;;1.75;;
20653;SDS011;21083;50.898;4.902;2023-10-19T06:02:45;14.00;;;2.22;;
20653;SDS011;21083;50.898;4.902;2023-10-19T06:05:14;10.50;;;1.35;;
20653;SDS011;21083;50.898;4.902;2023-10-19T06:07:42;16.70;;;2.42;;
20653;SDS011;21083;50.898;4.902;2023-10-19T06:10:10;11.57;;;1.40;;
20653;SDS011;21083;50.898;4.902;2023-10-19T06:12:41;14.90;;;2.35;;
20653;SDS011;21083;50.898;4.902;2023-10-19T06:15:09;9.30;;;1.63;;
20653;SDS011;21083;50.898;4.902;2023-10-19T06:17:37;8.20;;;1.63;;
20653;SDS011;21083;50.898;4.902;2023-10-19T06:20:06;12.77;;;2.15;;
20653;SDS011;21083;50.898;4.902;2023-10-19T06:22:44;17.52;;;1.75;;
20653;SDS011;21083;50.898;4.902;2023-10-19T06:25:15;8.82;;;1.35;;
20653;SDS011;21083;50.898;4.902;2023-10-19T06:27:43;11.10;;;2.10;;
20653;SDS011;21083;50.898;4.902;2023-10-19T06:30:10;10.98;;;2.40;;
20653;SDS011;21083;50.898;4.902;2023-10-19T06:32:42;12.48;;;1.92;;
20653;SDS011;21083;50.898;4.902;2023-10-19T06:35:12;10.40;;;1.80;;
20653;SDS011;21083;50.898;4.902;2023-10-19T06:37:39;15.88;;;1.90;;
20653;SDS011;21083;50.898;4.902;2023-10-19T06:40:06;9.23;;;1.80;;
20653;SDS011;21083;50.898;4.902;2023-10-19T06:42:36;14.05;;;1.70;;
20653;SDS011;21083;50.898;4.902;2023-10-19T06:45:03;9.23;;;1.30;;
20653;SDS011;21083;50.898;4.902;2023-10-19T06:47:30;14.75;;;1.80;;
20653;SDS011;21083;50.898;4.902;2023-10-19T06:50:02;16.50;;;2.05;;
20653;SDS011;21083;50.898;4.902;2023-10-19T06:52:33;17.63;;;2.88;;
20653;SDS011;21083;50.898;4.902;2023-10-19T06:55:01;13.25;;;2.60;;
20653;SDS011;21083;50.898;4.902;2023-10-19T06:57:29;8.65;;;1.60;;
20653;SDS011;21083;50.898;4.902;2023-10-19T06:59:56;9.85;;;1.40;;
20653;SDS011;21083;50.898;4.902;2023-10-19T07:02:23;13.65;;;2.67;;
20653;SDS011;21083;50.898;4.902;2023-10-19T07:04:51;8.13;;;1.27;;
20653;SDS011;21083;50.898;4.902;2023-10-19T07:07:18;14.05;;;1.60;;
20653;SDS011;21083;50.898;4.902;2023-10-19T07:09:46;9.45;;;1.65;;
20653;SDS011;21083;50.898;4.902;2023-10-19T07:12:13;11.50;;;1.50;;
20653;SDS011;21083;50.898;4.902;2023-10-19T07:14:43;8.35;;;1.77;;
20653;SDS011;21083;50.898;4.902;2023-10-19T07:17:10;9.43;;;1.83;;
20653;SDS011;21083;50.898;4.902;2023-10-19T07:19:37;12.75;;;2.15;;
20653;SDS011;21083;50.898;4.902;2023-10-19T07:22:08;15.90;;;2.63;;
20653;SDS011;21083;50.898;4.902;2023-10-19T07:24:36;12.55;;;2.05;;
20653;SDS011;21083;50.898;4.902;2023-10-19T07:27:04;11.73;;;1.80;;
20653;SDS011;21083;50.898;4.902;2023-10-19T07:29:33;17.73;;;1.70;;
20653;SDS011;21083;50.898;4.902;2023-10-19T07:32:01;12.38;;;1.65;;
20653;SDS011;21083;50.898;4.902;2023-10-19T07:34:31;9.57;;;1.55;;
20653;SDS011;21083;50.898;4.902;2023-10-19T07:36:58;14.27;;;2.05;;
20653;SDS011;21083;50.898;4.902;2023-10-19T07:39:26;11.13;;;1.65;;
20653;SDS011;21083;50.898;4.902;2023-10-19T07:41:54;9.00;;;1.55;;
20653;SDS011;21083;50.898;4.902;2023-10-19T07:44:23;13.00;;;2.50;;
20653;SDS011;21083;50.898;4.902;2023-10-19T07:46:50;11.60;;;2.55;;
20653;SDS011;21083;50.898;4.902;2023-10-19T07:49:18;12.57;;;2.92;;
20653;SDS011;21083;50.898;4.902;2023-10-19T07:51:47;15.82;;;2.30;;
20653;SDS011;21083;50.898;4.902;2023-10-19T07:54:15;11.45;;;1.75;;
20653;SDS011;21083;50.898;4.902;2023-10-19T07:56:41;16.33;;;2.00;;
20653;SDS011;21083;50.898;4.902;2023-10-19T07:59:09;9.88;;;1.65;;
20653;SDS011;21083;50.898;4.902;2023-10-19T08:01:38;10.65;;;2.15;;
20653;SDS011;21083;50.898;4.902;2023-10-19T08:04:05;13.80;;;2.85;;
20653;SDS011;21083;50.898;4.902;2023-10-19T08:06:32;16.60;;;2.38;;
20653;SDS011;21083;50.898;4.902;2023-10-19T08:09:00;19.65;;;2.10;;
20653;SDS011;21083;50.898;4.902;2023-10-19T08:11:27;12.90;;;1.80;;
20653;SDS011;21083;50.898;4.902;2023-10-19T08:13:53;13.82;;;1.80;;
20653;SDS011;21083;50.898;4.902;2023-10-19T08:16:21;15.68;;;2.72;;
20653;SDS011;21083;50.898;4.902;2023-10-19T08:18:50;14.77;;;2.58;;
20653;SDS011;21083;50.898;4.902;2023-10-19T08:21:18;9.38;;;2.00;;
20653;SDS011;21083;50.898;4.902;2023-10-19T08:23:46;14.57;;;2.20;;
20653;SDS011;21083;50.898;4.902;2023-10-19T08:26:13;14.10;;;2.08;;
20653;SDS011;21083;50.898;4.902;2023-10-19T08:28:41;21.88;;;2.75;;
20653;SDS011;21083;50.898;4.902;2023-10-19T08:31:08;18.10;;;3.13;;
20653;SDS011;21083;50.898;4.902;2023-10-19T08:33:36;16.75;;;2.50;;
20653;SDS011;21083;50.898;4.902;2023-10-19T08:36:05;12.95;;;1.92;;
20653;SDS011;21083;50.898;4.902;2023-10-19T08:38:41;12.65;;;2.15;;
20653;SDS011;21083;50.898;4.902;2023-10-19T08:41:08;13.48;;;2.30;;
20653;SDS011;21083;50.898;4.902;2023-10-19T08:43:35;21.52;;;2.75;;
20653;SDS011;21083;50.898;4.902;2023-10-19T08:46:04;15.90;;;3.42;;
20653;SDS011;21083;50.898;4.902;2023-10-19T08:48:33;16.48;;;2.97;;
20653;SDS011;21083;50.898;4.902;2023-10-19T08:51:02;18.95;;;2.60;;
20653;SDS011;21083;50.898;4.902;2023-10-19T08:53:37;18.90;;;3.22;;
20653;SDS011;21083;50.898;4.902;2023-10-19T08:56:06;10.88;;;2.72;;
20653;SDS011;21083;50.898;4.902;2023-10-19T08:58:33;19.58;;;2.80;;
20653;SDS011;21083;50.898;4.902;2023-10-19T09:01:00;14.60;;;2.88;;
20653;SDS011;21083;50.898;4.902;2023-10-19T09:03:31;13.00;;;2.30;;
20653;SDS011;21083;50.898;4.902;2023-10-19T09:06:00;17.63;;;2.80;;
20653;SDS011;21083;50.898;4.902;2023-10-19T09:08:27;9.65;;;3.03;;
20653;SDS011;21083;50.898;4.902;2023-10-19T09:11:06;26.40;;;5.18;;
20653;SDS011;21083;50.898;4.902;2023-10-19T09:13:43;21.70;;;2.80;;
20653;SDS011;21083;50.898;4.902;2023-10-19T09:16:12;13.32;;;2.25;;
20653;SDS011;21083;50.898;4.902;2023-10-19T09:18:40;16.70;;;2.20;;
20653;SDS011;21083;50.898;4.902;2023-10-19T09:21:07;18.52;;;2.13;;
20653;SDS011;21083;50.898;4.902;2023-10-19T09:23:36;19.50;;;2.50;;
20653;SDS011;21083;50.898;4.902;2023-10-19T09:26:04;14.07;;;2.35;;
20653;SDS011;21083;50.898;4.902;2023-10-19T09:28:36;13.23;;;2.17;;
20653;SDS011;21083;50.898;4.902;2023-10-19T09:31:04;14.73;;;3.10;;
20653;SDS011;21083;50.898;4.902;2023-10-19T09:33:34;13.05;;;1.52;;
20653;SDS011;21083;50.898;4.902;2023-10-19T09:36:02;16.58;;;2.40;;
20653;SDS011;21083;50.898;4.902;2023-10-19T09:38:37;20.65;;;2.92;;
20653;SDS011;21083;50.898;4.902;2023-10-19T09:41:08;10.20;;;2.28;;
20653;SDS011;21083;50.898;4.902;2023-10-19T09:43:41;16.02;;;2.25;;
20653;SDS011;21083;50.898;4.902;2023-10-19T09:46:10;14.05;;;2.50;;
20653;SDS011;21083;50.898;4.902;2023-10-19T09:48:39;14.57;;;3.03;;
20653;SDS011;21083;50.898;4.902;2023-10-19T09:51:07;12.60;;;2.00;;
20653;SDS011;21083;50.898;4.902;2023-10-19T09:53:35;17.30;;;2.63;;
20653;SDS011;21083;50.898;4.902;2023-10-19T09:56:05;10.40;;;2.22;;
20653;SDS011;21083;50.898;4.902;2023-10-19T09:58:38;15.63;;;2.97;;
20653;SDS011;21083;50.898;4.902;2023-10-19T10:01:10;14.07;;;2.38;;
20653;SDS011;21083;50.898;4.902;2023-10-19T10:03:45;17.45;;;2.38;;
20653;SDS011;21083;50.898;4.902;2023-10-19T10:06:13;18.98;;;2.88;;
20653;SDS011;21083;50.898;4.902;2023-10-19T10:08:42;15.80;;;2.38;;
20653;SDS011;21083;50.898;4.902;2023-10-19T10:11:21;19.23;;;2.72;;
20653;SDS011;21083;50.898;4.902;2023-10-19T10:13:49;19.50;;;2.92;;
20653;SDS011;21083;50.898;4.902;2023-10-19T10:16:17;16.60;;;2.45;;
20653;SDS011;21083;50.898;4.902;2023-10-19T10:18:46;17.70;;;2.75;;
20653;SDS011;21083;50.898;4.902;2023-10-19T10:21:15;15.77;;;2.08;;
20653;SDS011;21083;50.898;4.902;2023-10-19T10:23:46;16.70;;;2.17;;
20653;SDS011;21083;50.898;4.902;2023-10-19T10:26:14;12.90;;;2.20;;
20653;SDS011;21083;50.898;4.902;2023-10-19T10:28:47;16.90;;;2.38;;
20653;SDS011;21083;50.898;4.902;2023-10-19T10:31:15;17.85;;;2.00;;
20653;SDS011;21083;50.898;4.902;2023-10-19T10:33:46;19.02;;;2.97;;
20653;SDS011;21083;50.898;4.902;2023-10-19T10:36:15;19.42;;;3.13;;
20653;SDS011;21083;50.898;4.902;2023-10-19T10:38:43;15.80;;;2.60;;
20653;SDS011;21083;50.898;4.902;2023-10-19T10:41:11;19.25;;;3.13;;
20653;SDS011;21083;50.898;4.902;2023-10-19T10:46:30;18.08;;;2.47;;
20653;SDS011;21083;50.898;4.902;2023-10-19T10:48:57;14.20;;;2.13;;
20653;SDS011;21083;50.898;4.902;2023-10-19T10:51:25;17.48;;;2.10;;
20653;SDS011;21083;50.898;4.902;2023-10-19T10:53:53;10.98;;;1.83;;
20653;SDS011;21083;50.898;4.902;2023-10-19T10:56:22;17.25;;;2.30;;
20653;SDS011;21083;50.898;4.902;2023-10-19T10:58:50;20.00;;;2.83;;
20653;SDS011;21083;50.898;4.902;2023-10-19T11:01:28;18.83;;;2.92;;
20653;SDS011;21083;50.898;4.902;2023-10-19T11:04:07;11.75;;;1.83;;
20653;SDS011;21083;50.898;4.902;2023-10-19T11:06:48;14.23;;;2.90;;
20653;SDS011;21083;50.898;4.902;2023-10-19T11:09:15;15.90;;;3.22;;
20653;SDS011;21083;50.898;4.902;2023-10-19T11:11:44;13.57;;;2.30;;
20653;SDS011;21083;50.898;4.902;2023-10-19T11:14:11;11.27;;;1.80;;
20653;SDS011;21083;50.898;4.902;2023-10-19T11:16:40;13.68;;;2.85;;
20653;SDS011;21083;50.898;4.902;2023-10-19T11:19:08;13.63;;;2.92;;
20653;SDS011;21083;50.898;4.902;2023-10-19T11:21:35;14.75;;;2.47;;
20653;SDS011;21083;50.898;4.902;2023-10-19T11:24:03;15.75;;;2.20;;
20653;SDS011;21083;50.898;4.902;2023-10-19T11:26:30;12.68;;;2.10;;
20653;SDS011;21083;50.898;4.902;2023-10-19T11:29:05;11.70;;;2.13;;
20653;SDS011;21083;50.898;4.902;2023-10-19T11:31:35;18.75;;;2.50;;
20653;SDS011;21083;50.898;4.902;2023-10-19T11:34:06;12.25;;;1.92;;
20653;SDS011;21083;50.898;4.902;2023-10-19T11:36:34;12.57;;;2.17;;
20653;SDS011;21083;50.898;4.902;2023-10-19T11:39:01;16.35;;;2.35;;
20653;SDS011;21083;50.898;4.902;2023-10-19T11:41:29;12.25;;;2.05;;
20653;SDS011;21083;50.898;4.902;2023-10-19T11:43:56;11.65;;;2.10;;
20653;SDS011;21083;50.898;4.902;2023-10-19T11:46:23;13.43;;;2.30;;
20653;SDS011;21083;50.898;4.902;2023-10-19T11:48:50;16.80;;;2.63;;
20653;SDS011;21083;50.898;4.902;2023-10-19T11:51:19;14.63;;;2.15;;
20653;SDS011;21083;50.898;4.902;2023-10-19T11:53:46;13.18;;;2.90;;
20653;SDS011;21083;50.898;4.902;2023-10-19T11:56:13;9.60;;;1.75;;
20653;SDS011;21083;50.898;4.902;2023-10-19T11:58:41;8.65;;;1.70;;
20653;SDS011;21083;50.898;4.902;2023-10-19T12:01:12;9.50;;;2.03;;
20653;SDS011;21083;50.898;4.902;2023-10-19T12:03:39;17.75;;;2.38;;
20653;SDS011;21083;50.898;4.902;2023-10-19T12:06:06;16.20;;;2.53;;
20653;SDS011;21083;50.898;4.902;2023-10-19T12:08:37;12.38;;;2.58;;
20653;SDS011;21083;50.898;4.902;2023-10-19T12:11:05;13.90;;;2.70;;
20653;SDS011;21083;50.898;4.902;2023-10-19T12:13:40;17.75;;;3.15;;
20653;SDS011;21083;50.898;4.902;2023-10-19T12:16:08;13.10;;;2.55;;
20653;SDS011;21083;50.898;4.902;2023-10-19T12:18:37;10.80;;;1.92;;
20653;SDS011;21083;50.898;4.902;2023-10-19T12:21:04;11.85;;;2.75;;
20653;SDS011;21083;50.898;4.902;2023-10-19T12:23:36;8.30;;;1.77;;
20653;SDS011;21083;50.898;4.902;2023-10-19T12:26:04;22.83;;;5.57;;
20653;SDS011;21083;50.898;4.902;2023-10-19T12:28:36;16.50;;;5.00;;
20653;SDS011;21083;50.898;4.902;2023-10-19T12:31:04;31.02;;;8.32;;
20653;SDS011;21083;50.898;4.902;2023-10-19T12:33:33;22.52;;;8.52;;
20653;SDS011;21083;50.898;4.902;2023-10-19T12:36:01;10.13;;;3.35;;
20653;SDS011;21083;50.898;4.902;2023-10-19T12:38:48;11.98;;;2.70;;
20653;SDS011;21083;50.898;4.902;2023-10-19T12:41:16;10.57;;;2.90;;
20653;SDS011;21083;50.898;4.902;2023-10-19T12:43:43;16.52;;;9.55;;
20653;SDS011;21083;50.898;4.902;2023-10-19T12:46:11;10.88;;;5.97;;
20653;SDS011;21083;50.898;4.902;2023-10-19T12:48:39;20.30;;;13.90;;
20653;SDS011;21083;50.898;4.902;2023-10-19T12:51:06;10.00;;;4.55;;
20653;SDS011;21083;50.898;4.902;2023-10-19T12:53:34;9.90;;;2.78;;
20653;SDS011;21083;50.898;4.902;2023-10-19T12:56:03;9.88;;;2.10;;
20653;SDS011;21083;50.898;4.902;2023-10-19T12:58:31;13.32;;;5.68;;
20653;SDS011;21083;50.898;4.902;2023-10-19T13:00:58;12.77;;;3.47;;
20653;SDS011;21083;50.898;4.902;2023-10-19T13:03:25;4.40;;;1.38;;
20653;SDS011;21083;50.898;4.902;2023-10-19T13:05:56;10.02;;;2.70;;
20653;SDS011;21083;50.898;4.902;2023-10-19T13:08:24;12.60;;;6.45;;
20653;SDS011;21083;50.898;4.902;2023-10-19T13:10:52;6.80;;;1.52;;
20653;SDS011;21083;50.898;4.902;2023-10-19T13:13:22;11.52;;;6.20;;
20653;SDS011;21083;50.898;4.902;2023-10-19T13:15:49;10.68;;;4.38;;
20653;SDS011;21083;50.898;4.902;2023-10-19T13:18:18;7.45;;;1.98;;
20653;SDS011;21083;50.898;4.902;2023-10-19T13:20:46;10.05;;;4.38;;
20653;SDS011;21083;50.898;4.902;2023-10-19T13:23:14;14.07;;;3.42;;
20653;SDS011;21083;50.898;4.902;2023-10-19T13:25:42;11.45;;;2.30;;
20653;SDS011;21083;50.898;4.902;2023-10-19T13:28:15;8.95;;;2.50;;
20653;SDS011;21083;50.898;4.902;2023-10-19T13:30:47;6.07;;;1.83;;
20653;SDS011;21083;50.898;4.902;2023-10-19T13:33:16;7.05;;;1.88;;
20653;SDS011;21083;50.898;4.902;2023-10-19T13:35:44;7.78;;;1.50;;
20653;SDS011;21083;50.898;4.902;2023-10-19T13:38:13;13.77;;;4.82;;
20653;SDS011;21083;50.898;4.902;2023-10-19T13:40:42;17.65;;;6.90;;
20653;SDS011;21083;50.898;4.902;2023-10-19T13:43:10;8.65;;;2.47;;
20653;SDS011;21083;50.898;4.902;2023-10-19T13:45:39;11.02;;;2.90;;
20653;SDS011;21083;50.898;4.902;2023-10-19T13:48:09;8.70;;;1.60;;
20653;SDS011;21083;50.898;4.902;2023-10-19T13:50:41;6.15;;;1.65;;
20653;SDS011;21083;50.898;4.902;2023-10-19T13:53:11;5.28;;;1.38;;
20653;SDS011;21083;50.898;4.902;2023-10-19T13:55:38;5.45;;;1.45;;
20653;SDS011;21083;50.898;4.902;2023-10-19T13:58:05;5.88;;;2.15;;
20653;SDS011;21083;50.898;4.902;2023-10-19T14:00:32;4.07;;;1.42;;
20653;SDS011;21083;50.898;4.902;2023-10-19T14:03:05;4.40;;;0.90;;
20653;SDS011;21083;50.898;4.902;2023-10-19T14:05:38;6.93;;;2.05;;
20653;SDS011;21083;50.898;4.902;2023-10-19T14:08:08;4.40;;;1.02;;
20653;SDS011;21083;50.898;4.902;2023-10-19T14:10:35;5.65;;;1.20;;
20653;SDS011;21083;50.898;4.902;2023-10-19T14:13:06;8.05;;;1.33;;
20653;SDS011;21083;50.898;4.902;2023-10-19T14:15:34;4.18;;;1.42;;
20653;SDS011;21083;50.898;4.902;2023-10-19T14:18:02;4.20;;;1.38;;
20653;SDS011;21083;50.898;4.902;2023-10-19T14:20:30;4.07;;;1.00;;
20653;SDS011;21083;50.898;4.902;2023-10-19T14:23:00;4.78;;;1.02;;
20653;SDS011;21083;50.898;4.902;2023-10-19T14:25:29;4.40;;;1.17;;
20653;SDS011;21083;50.898;4.902;2023-10-19T14:27:56;5.35;;;1.17;;
20653;SDS011;21083;50.898;4.902;2023-10-19T14:30:24;6.00;;;1.02;;
20653;SDS011;21083;50.898;4.902;2023-10-19T14:32:54;3.40;;;0.70;;
20653;SDS011;21083;50.898;4.902;2023-10-19T14:35:22;5.90;;;1.10;;
20653;SDS011;21083;50.898;4.902;2023-10-19T14:37:51;3.13;;;0.90;;
20653;SDS011;21083;50.898;4.902;2023-10-19T14:40:22;4.10;;;1.10;;
20653;SDS011;21083;50.898;4.902;2023-10-19T14:42:51;3.13;;;0.80;;
20653;SDS011;21083;50.898;4.902;2023-10-19T14:45:20;6.85;;;0.80;;
20653;SDS011;21083;50.898;4.902;2023-10-19T14:47:51;6.47;;;1.25;;
20653;SDS011;21083;50.898;4.902;2023-10-19T14:50:19;3.75;;;0.98;;
20653;SDS011;21083;50.898;4.902;2023-10-19T14:52:48;2.03;;;0.85;;
20653;SDS011;21083;50.898;4.902;2023-10-19T14:55:16;3.40;;;0.70;;
20653;SDS011;21083;50.898;4.902;2023-10-19T14:57:45;4.20;;;0.90;;